Time;durP1;ratioP1;P1;durP2;ratioP2;P2;SDS_P1;SDS_P2;PMS_P1;PMS_P2;Temp;Humidity;BMP_temperature;BMP_pressure;BME280_temperature;BME280_humidity;BME280_pressure;Samples;Min_cycle;Max_cycle;Signal;HPM_P1;HPM_P2
2021/03/15 00:01:50;;;;;;;11.40;6.65;;;205.00;2252.80;;;;;;5053848;28;20049;-62
2021/03/15 00:04:15;;;;;;;12.93;6.97;;;205.00;2252.80;;;;;;5054156;28;20060;-64
2021/03/15 00:06:41;;;;;;;11.52;6.70;;;205.00;2252.80;;;;;;5054044;28;20534;-63
2021/03/15 00:09:07;;;;;;;10.95;5.97;;;204.90;2252.80;;;;;;5042188;28;20044;-61
2021/03/15 00:11:33;;;;;;;11.13;6.30;;;204.90;2252.80;;;;;;5043928;28;20143;-62
2021/03/15 00:13:59;;;;;;;10.30;5.43;;;204.90;2252.80;;;;;;5039751;28;20028;-61
2021/03/15 00:16:24;;;;;;;13.80;6.82;;;204.90;2252.80;;;;;;5041650;28;20379;-64
2021/03/15 00:18:50;;;;;;;9.40;5.25;;;204.90;2252.80;;;;;;5041062;28;20459;-63
2021/03/15 00:21:16;;;;;;;7.55;4.40;;;204.90;2252.80;;;;;;5044634;28;20116;-61
2021/03/15 00:23:42;;;;;;;7.60;4.78;;;204.90;2252.80;;;;;;5043080;28;20032;-63
2021/03/15 00:26:07;;;;;;;6.82;4.43;;;204.90;2252.80;;;;;;5020857;28;20026;-61
2021/03/15 00:28:33;;;;;;;7.10;4.28;;;204.90;2227.20;;;;;;5038764;28;20075;-64
2021/03/15 00:30:59;;;;;;;8.90;5.05;;;204.90;2252.80;;;;;;5022143;28;20435;-62
2021/03/15 00:33:25;;;;;;;6.85;4.28;;;204.90;2227.20;;;;;;5040579;28;20394;-65
2021/03/15 00:35:51;;;;;;;9.30;4.78;;;204.80;2227.20;;;;;;5041297;28;20145;-66
2021/03/15 00:38:17;;;;;;;7.82;4.30;;;204.80;2252.80;;;;;;5041240;28;20052;-65
2021/03/15 00:40:43;;;;;;;6.35;4.00;;;204.80;2252.80;;;;;;5040773;28;20486;-64
2021/03/15 00:43:08;;;;;;;7.65;4.53;;;204.80;2227.20;;;;;;5024067;28;21328;-60
2021/03/15 00:45:34;;;;;;;7.95;4.60;;;204.80;2227.20;;;;;;5039890;28;20029;-63
2021/03/15 00:48:00;;;;;;;8.20;4.50;;;204.80;2201.60;;;;;;5022154;28;20545;-63
2021/03/15 00:50:40;;;;;;;5.82;4.07;;;204.80;2227.20;;;;;;5040623;28;20514;-62
2021/03/15 00:53:06;;;;;;;7.53;4.22;;;180.10;2201.60;;;;;;5038359;28;20025;-63
2021/03/15 00:55:32;;;;;;;8.13;4.45;;;180.10;2201.60;;;;;;5039589;28;20422;-62
2021/03/15 00:57:58;;;;;;;7.78;4.93;;;180.10;2201.60;;;;;;5039954;28;20020;-62
2021/03/15 01:00:35;;;;;;;6.53;4.28;;;180.00;2201.60;;;;;;5040807;28;20103;-61
2021/03/15 01:03:02;;;;;;;7.82;4.20;;;180.10;2227.20;;;;;;5038558;28;20029;-62
2021/03/15 01:05:34;;;;;;;8.93;4.32;;;180.00;2227.20;;;;;;5041549;28;20029;-62
2021/03/15 01:07:59;;;;;;;6.40;3.90;;;180.00;2201.60;;;;;;5037583;28;20052;-61
2021/03/15 01:10:28;;;;;;;7.78;4.97;;;180.00;2201.60;;;;;;5039038;28;20115;-61
2021/03/15 01:12:54;;;;;;;8.75;4.65;;;180.00;2227.20;;;;;;5040827;28;20123;-62
2021/03/15 01:15:21;;;;;;;11.25;4.55;;;180.00;2176.00;;;;;;5037634;28;20652;-60
2021/03/15 01:17:47;;;;;;;6.20;3.88;;;180.10;2201.60;;;;;;5041427;28;20032;-61
2021/03/15 01:20:14;;;;;;;8.18;4.47;;;180.00;2176.00;;;;;;5042404;28;20112;-61
2021/03/15 01:22:39;;;;;;;7.72;4.35;;;180.00;2176.00;;;;;;5037872;28;20692;-60
2021/03/15 01:25:07;;;;;;;8.23;4.13;;;180.00;2201.60;;;;;;5041367;28;20092;-61
2021/03/15 01:27:32;;;;;;;7.07;3.90;;;180.00;2176.00;;;;;;5041997;28;20030;-62
2021/03/15 01:29:58;;;;;;;7.03;3.80;;;180.00;2176.00;;;;;;5040538;28;20056;-62
2021/03/15 01:32:24;;;;;;;6.85;4.00;;;180.00;2176.00;;;;;;5041714;28;20490;-63
2021/03/15 01:34:50;;;;;;;7.03;3.92;;;180.00;2176.00;;;;;;5041580;28;20040;-61
2021/03/15 01:37:15;;;;;;;8.77;4.65;;;180.00;2201.60;;;;;;5039990;28;20047;-61
2021/03/15 01:39:41;;;;;;;6.95;3.85;;;179.90;2176.00;;;;;;5040204;28;20021;-62
2021/03/15 01:42:07;;;;;;;9.82;5.07;;;179.90;2176.00;;;;;;5023969;28;20021;-64
2021/03/15 01:44:34;;;;;;;9.13;4.85;;;179.90;2176.00;;;;;;5045384;28;20136;-61
2021/03/15 01:47:02;;;;;;;12.80;5.97;;;179.90;2176.00;;;;;;5036814;28;20104;-62
2021/03/15 01:49:28;;;;;;;10.57;5.35;;;179.90;2201.60;;;;;;5036285;28;20042;-68
2021/03/15 01:51:54;;;;;;;8.05;4.20;;;179.90;2201.60;;;;;;5036604;28;20021;-60
2021/03/15 01:54:21;;;;;;;11.77;5.20;;;179.90;2201.60;;;;;;5034522;28;20033;-60
2021/03/15 01:56:48;;;;;;;7.15;4.20;;;179.90;2176.00;;;;;;5036284;28;20391;-62
2021/03/15 01:59:16;;;;;;;10.10;5.35;;;179.80;2201.60;;;;;;5036925;28;20037;-61
2021/03/15 02:01:46;;;;;;;11.93;5.50;;;179.80;2227.20;;;;;;5016472;28;20056;-61
2021/03/15 02:04:12;;;;;;;10.38;4.95;;;179.80;2201.60;;;;;;5037034;28;20032;-61
2021/03/15 02:06:37;;;;;;;8.98;5.32;;;179.70;2201.60;;;;;;5040849;28;20026;-61
2021/03/15 02:09:04;;;;;;;8.05;4.50;;;179.70;2201.60;;;;;;5036316;28;20095;-61
2021/03/15 02:11:48;;;;;;;11.15;6.07;;;179.70;2201.60;;;;;;5035964;28;20466;-61
2021/03/15 02:14:41;;;;;;;9.45;5.45;;;179.60;2227.20;;;;;;5036330;28;20033;-61
2021/03/15 02:17:39;;;;;;;8.43;4.80;;;179.60;2252.80;;;;;;5035966;28;20029;-61
2021/03/15 02:20:29;;;;;;;7.97;4.50;;;179.50;2227.20;;;;;;5034163;28;20057;-61
2021/03/15 02:23:01;;;;;;;5.82;3.90;;;179.50;2252.80;;;;;;5018149;28;20029;-62
2021/03/15 02:25:57;;;;;;;7.60;4.78;;;179.50;2252.80;;;;;;5018103;28;20383;-61
2021/03/15 02:28:47;;;;;;;10.15;6.30;;;179.40;2252.80;;;;;;5035725;28;20033;-61
2021/03/15 02:31:36;;;;;;;6.10;4.13;;;179.40;2252.80;;;;;;5035787;28;20044;-61
2021/03/15 02:34:35;;;;;;;7.13;4.72;;;179.30;2252.80;;;;;;5035928;28;20562;-61
2021/03/15 02:37:05;;;;;;;8.80;4.68;;;179.30;2252.80;;;;;;5035713;28;20026;-62
2021/03/15 02:39:36;;;;;;;6.53;4.35;;;179.30;2252.80;;;;;;5035684;28;20021;-62
2021/03/15 02:42:09;;;;;;;8.68;4.88;;;179.30;2252.80;;;;;;5035170;28;20030;-61
2021/03/15 02:44:36;;;;;;;7.95;4.93;;;179.40;2252.80;;;;;;5035702;28;20021;-61
2021/03/15 02:47:09;;;;;;;9.40;5.70;;;179.30;2252.80;;;;;;5035256;28;20386;-61
2021/03/15 02:49:36;;;;;;;8.10;5.95;;;179.40;2252.80;;;;;;5035436;28;20037;-61
2021/03/15 02:52:03;;;;;;;9.00;5.72;;;179.30;2252.80;;;;;;5017350;28;20037;-61
2021/03/15 02:54:30;;;;;;;9.55;5.35;;;179.20;2252.80;;;;;;5035138;28;20039;-61
2021/03/15 02:56:59;;;;;;;8.60;5.38;;;179.20;2252.80;;;;;;5034922;28;20031;-61
2021/03/15 02:59:27;;;;;;;8.50;5.80;;;154.50;2252.80;;;;;;5035438;28;20040;-61
2021/03/15 03:01:54;;;;;;;10.13;6.45;;;179.20;2252.80;;;;;;5034810;28;20124;-61
2021/03/15 03:04:21;;;;;;;9.32;6.50;;;179.20;2252.80;;;;;;5034855;28;20038;-62
2021/03/15 03:06:51;;;;;;;8.57;6.20;;;179.20;2252.80;;;;;;5035410;28;20076;-61
2021/03/15 03:09:17;;;;;;;9.60;5.97;;;179.20;2252.80;;;;;;5031121;28;20045;-62
2021/03/15 03:11:45;;;;;;;8.50;5.40;;;154.50;2252.80;;;;;;5031870;28;20032;-61
2021/03/15 03:14:12;;;;;;;10.02;6.18;;;154.40;2252.80;;;;;;5031839;28;20132;-62
2021/03/15 03:16:41;;;;;;;8.52;5.60;;;154.40;2252.80;;;;;;5032718;28;20097;-62
2021/03/15 03:19:11;;;;;;;8.95;5.97;;;154.40;2252.80;;;;;;5033893;28;20040;-61
2021/03/15 03:21:39;;;;;;;8.77;5.70;;;154.30;2252.80;;;;;;5035153;28;20021;-61
2021/03/15 03:24:07;;;;;;;8.65;5.63;;;154.40;2252.80;;;;;;5034490;28;20033;-62
2021/03/15 03:26:33;;;;;;;10.00;5.82;;;154.40;2252.80;;;;;;5034716;28;20493;-61
2021/03/15 03:28:59;;;;;;;9.43;5.25;;;154.30;2252.80;;;;;;5038915;28;20054;-61
2021/03/15 03:31:30;;;;;;;9.13;6.10;;;154.30;2252.80;;;;;;5043967;28;20024;-61
2021/03/15 03:33:56;;;;;;;8.90;5.65;;;154.20;2252.80;;;;;;5042599;28;20021;-62
2021/03/15 03:36:22;;;;;;;9.13;6.15;;;154.30;2252.80;;;;;;5042369;28;20013;-61
2021/03/15 03:38:47;;;;;;;7.90;5.82;;;154.20;2252.80;;;;;;5043919;28;20021;-61
2021/03/15 03:41:14;;;;;;;8.63;5.50;;;154.20;2252.80;;;;;;5042789;28;20021;-61
2021/03/15 03:43:39;;;;;;;9.50;6.05;;;154.20;2252.80;;;;;;5041695;28;20017;-61
2021/03/15 03:46:07;;;;;;;10.63;6.85;;;154.20;2252.80;;;;;;5041710;28;20034;-61
2021/03/15 03:48:35;;;;;;;11.02;6.53;;;154.10;2252.80;;;;;;5043390;28;20398;-62
2021/03/15 03:51:02;;;;;;;12.30;7.05;;;154.10;2252.80;;;;;;5043443;28;20029;-61
2021/03/15 03:53:35;;;;;;;10.57;6.85;;;154.10;2252.80;;;;;;5041571;28;20060;-61
2021/03/15 03:56:03;;;;;;;9.90;6.63;;;154.00;2252.80;;;;;;5042144;28;20060;-61
2021/03/15 03:58:41;;;;;;;11.60;7.70;;;153.90;2252.80;;;;;;5043829;28;20032;-61
2021/03/15 04:01:10;;;;;;;10.43;6.47;;;154.00;2252.80;;;;;;5043380;28;20083;-62
2021/03/15 04:03:37;;;;;;;12.65;7.38;;;153.80;2252.80;;;;;;5042189;28;20022;-61
2021/03/15 04:06:11;;;;;;;10.48;7.00;;;153.90;2252.80;;;;;;5041759;28;20017;-62
2021/03/15 04:08:55;;;;;;;11.85;7.13;;;153.80;2252.80;;;;;;5040191;28;20029;-61
2021/03/15 04:11:25;;;;;;;13.40;7.07;;;153.80;2252.80;;;;;;5039650;28;20037;-61
2021/03/15 04:13:53;;;;;;;9.70;6.97;;;153.70;2252.80;;;;;;5036511;28;20017;-61
2021/03/15 04:16:24;;;;;;;12.98;7.20;;;153.60;2252.80;;;;;;5042082;28;20025;-61
2021/03/15 04:18:52;;;;;;;13.18;7.68;;;153.60;2252.80;;;;;;5041017;28;20112;-61
2021/03/15 04:21:22;;;;;;;12.48;8.23;;;153.60;2252.80;;;;;;5041873;28;20024;-61
2021/03/15 04:23:49;;;;;;;12.90;8.48;;;153.60;2252.80;;;;;;5042764;28;20087;-62
2021/03/15 04:26:15;;;;;;;14.38;8.25;;;153.70;2252.80;;;;;;5041611;28;20018;-62
2021/03/15 04:28:41;;;;;;;14.07;8.38;;;153.60;2252.80;;;;;;5041534;28;20032;-61
2021/03/15 04:31:09;;;;;;;13.27;9.07;;;128.90;2252.80;;;;;;5042970;28;20019;-61
2021/03/15 04:33:39;;;;;;;14.32;9.27;;;128.90;2252.80;;;;;;5040798;28;20025;-61
2021/03/15 04:36:07;;;;;;;15.07;9.88;;;128.90;2252.80;;;;;;5041149;28;20104;-60
2021/03/15 04:38:34;;;;;;;16.50;11.02;;;128.90;2252.80;;;;;;5038220;28;20017;-61
2021/03/15 04:41:02;;;;;;;13.23;9.30;;;128.90;2252.80;;;;;;5023537;28;20029;-61
2021/03/15 04:43:29;;;;;;;13.27;9.23;;;128.80;2252.80;;;;;;5042678;28;20059;-61
2021/03/15 04:45:55;;;;;;;16.73;10.57;;;128.80;2252.80;;;;;;5041126;28;20095;-61
2021/03/15 04:48:24;;;;;;;19.90;11.60;;;128.90;2252.80;;;;;;5041656;28;20037;-61
2021/03/15 04:50:53;;;;;;;14.70;9.70;;;128.70;2252.80;;;;;;5042237;28;20111;-61
2021/03/15 04:53:20;;;;;;;13.82;9.40;;;128.70;2252.80;;;;;;5041592;28;20024;-61
2021/03/15 04:55:46;;;;;;;13.93;8.98;;;128.70;2252.80;;;;;;5040343;28;20581;-60
2021/03/15 04:58:14;;;;;;;15.10;10.52;;;128.60;2252.80;;;;;;5042316;28;20029;-61
2021/03/15 05:00:44;;;;;;;148.07;67.68;;;128.50;2252.80;;;;;;5041356;28;20048;-61
2021/03/15 05:03:15;;;;;;;28.45;17.67;;;128.50;2252.80;;;;;;5043435;28;20061;-61
2021/03/15 05:05:43;;;;;;;16.48;12.25;;;128.40;2252.80;;;;;;5040818;28;20022;-61
2021/03/15 05:08:11;;;;;;;34.95;17.17;;;128.40;2252.80;;;;;;5043197;28;20036;-62
2021/03/15 05:10:39;;;;;;;16.13;11.35;;;128.40;2252.80;;;;;;5043072;28;20033;-61
2021/03/15 05:13:05;;;;;;;13.45;9.20;;;128.40;2252.80;;;;;;5041511;28;20026;-61
2021/03/15 05:15:33;;;;;;;21.73;11.70;;;128.40;2252.80;;;;;;5041363;28;20087;-61
2021/03/15 05:17:59;;;;;;;14.93;9.63;;;128.40;2252.80;;;;;;5042052;28;20099;-60
2021/03/15 05:20:25;;;;;;;24.33;13.20;;;128.40;2252.80;;;;;;5041278;28;20039;-61
2021/03/15 05:22:52;;;;;;;28.50;15.05;;;128.50;2252.80;;;;;;5041248;28;20025;-60
2021/03/15 05:25:20;;;;;;;24.02;13.88;;;128.50;2252.80;;;;;;5042328;28;20028;-60
2021/03/15 05:27:50;;;;;;;26.83;12.90;;;128.50;2252.80;;;;;;5041089;28;20022;-61
2021/03/15 05:30:18;;;;;;;22.40;11.57;;;128.50;2252.80;;;;;;5040471;28;20053;-61
2021/03/15 05:32:50;;;;;;;35.95;15.68;;;128.50;2252.80;;;;;;5044993;28;20052;-61
2021/03/15 05:35:17;;;;;;;16.92;10.68;;;128.50;2252.80;;;;;;5046483;28;20427;-61
2021/03/15 05:37:45;;;;;;;15.73;10.63;;;128.50;2252.80;;;;;;5044520;28;20044;-61
2021/03/15 05:40:15;;;;;;;15.23;10.70;;;128.50;2252.80;;;;;;5044580;28;20024;-61
2021/03/15 05:43:05;;;;;;;29.52;14.35;;;128.50;2252.80;;;;;;5041673;28;20025;-60
2021/03/15 05:46:02;;;;;;;26.08;13.25;;;128.50;2252.80;;;;;;5043787;28;20052;-61
2021/03/15 05:48:46;;;;;;;19.33;11.40;;;128.50;2252.80;;;;;;4983728;28;20057;-61
2021/03/15 05:51:12;;;;;;;21.40;11.63;;;128.50;2252.80;;;;;;4983532;28;20073;-61
2021/03/15 05:54:19;;;;;;;15.07;9.10;;;128.50;2252.80;;;;;;4982731;28;20039;-61
2021/03/15 05:56:48;;;;;;;16.42;10.65;;;128.40;2252.80;;;;;;4983739;28;20077;-60
2021/03/15 05:59:30;;;;;;;18.98;11.00;;;128.40;2252.80;;;;;;4982918;28;20097;-61
2021/03/15 06:02:32;;;;;;;14.55;9.27;;;128.40;2252.80;;;;;;4987130;28;20141;-61
2021/03/15 06:05:30;;;;;;;16.38;11.30;;;128.40;2252.80;;;;;;4989138;28;20031;-61
2021/03/15 06:08:05;;;;;;;16.27;10.27;;;128.40;2252.80;;;;;;4869069;29;20037;-61
2021/03/15 06:10:49;;;;;;;23.40;13.30;;;128.40;2252.80;;;;;;4868690;29;20400;-61
2021/03/15 06:13:16;;;;;;;16.02;10.38;;;128.50;2252.80;;;;;;4867289;29;20033;-60
2021/03/15 06:15:44;;;;;;;16.23;10.02;;;128.50;2252.80;;;;;;4868992;29;20116;-61
2021/03/15 06:18:13;;;;;;;19.02;11.23;;;128.50;2252.80;;;;;;4870435;29;20082;-61
2021/03/15 06:20:43;;;;;;;16.30;10.32;;;128.50;2252.80;;;;;;4869667;29;20033;-61
2021/03/15 06:23:10;;;;;;;18.35;11.00;;;128.50;2252.80;;;;;;4868424;29;20116;-61
2021/03/15 06:25:36;;;;;;;20.48;13.10;;;128.50;2252.80;;;;;;4904530;29;20039;-61
2021/03/15 06:28:03;;;;;;;21.50;13.55;;;128.50;2252.80;;;;;;4925807;29;20115;-61
2021/03/15 06:30:30;;;;;;;21.00;14.13;;;128.50;2252.80;;;;;;4924450;28;20100;-61
2021/03/15 06:33:00;;;;;;;18.95;11.70;;;128.50;2252.80;;;;;;4925845;29;20470;-61
2021/03/15 06:35:29;;;;;;;21.25;13.70;;;128.50;2252.80;;;;;;4926478;29;20035;-61
2021/03/15 06:37:56;;;;;;;20.38;13.25;;;128.60;2252.80;;;;;;4924678;29;20048;-61
2021/03/15 06:40:23;;;;;;;21.55;14.20;;;128.70;2252.80;;;;;;4924738;29;20024;-61
2021/03/15 06:42:53;;;;;;;23.20;14.80;;;128.70;2252.80;;;;;;4925383;29;20052;-61
2021/03/15 06:45:20;;;;;;;24.23;14.98;;;128.80;2252.80;;;;;;5028840;28;20028;-62
2021/03/15 06:47:48;;;;;;;19.50;13.40;;;128.80;2252.80;;;;;;5037734;28;20033;-61
2021/03/15 06:50:15;;;;;;;24.30;14.65;;;128.90;2252.80;;;;;;5035259;28;20040;-62
2021/03/15 06:52:54;;;;;;;20.50;15.00;;;128.90;2252.80;;;;;;5035428;28;20032;-61
2021/03/15 06:55:30;;;;;;;20.92;12.50;;;153.60;2252.80;;;;;;5037110;28;20025;-61
2021/03/15 06:57:56;;;;;;;19.83;13.70;;;128.80;2252.80;;;;;;5033347;28;20024;-66
2021/03/15 07:00:26;;;;;;;18.10;12.40;;;128.90;2252.80;;;;;;5040299;28;20041;-61
2021/03/15 07:03:03;;;;;;;21.10;12.50;;;128.90;2252.80;;;;;;5041561;28;20071;-62
2021/03/15 07:05:30;;;;;;;17.00;11.32;;;128.90;2252.80;;;;;;5039008;28;20104;-64
2021/03/15 07:07:58;;;;;;;21.00;12.20;;;128.80;2252.80;;;;;;5040190;28;20025;-67
2021/03/15 07:10:27;;;;;;;17.92;12.23;;;128.80;2252.80;;;;;;5043091;28;20026;-61
2021/03/15 07:13:17;;;;;;;24.92;14.25;;;128.80;2252.80;;;;;;5023766;28;20148;-61
2021/03/15 07:15:45;;;;;;;17.27;11.57;;;128.90;2252.80;;;;;;5041040;28;20021;-61
2021/03/15 07:18:18;;;;;;;20.30;12.68;;;153.60;2252.80;;;;;;5041301;28;20033;-62
2021/03/15 07:21:06;;;;;;;20.77;13.20;;;128.90;2252.80;;;;;;5041341;28;20546;-67
2021/03/15 07:23:43;;;;;;;26.27;15.75;;;153.60;2252.80;;;;;;5041068;28;20033;-62
2021/03/15 07:26:21;;;;;;;28.63;19.85;;;153.70;2252.80;;;;;;5044628;28;20017;-62
2021/03/15 07:28:48;;;;;;;37.97;24.25;;;153.70;2252.80;;;;;;5052442;28;20040;-63
2021/03/15 07:31:20;;;;;;;48.08;26.85;;;153.80;2252.80;;;;;;5040012;28;20021;-64
2021/03/15 07:33:47;;;;;;;66.45;32.78;;;153.80;2252.80;;;;;;5034436;28;20556;-61
2021/03/15 07:36:13;;;;;;;42.45;23.10;;;153.90;2252.80;;;;;;5042911;28;20049;-61
2021/03/15 07:38:39;;;;;;;42.05;25.30;;;154.00;2252.80;;;;;;5033830;28;20048;-61
2021/03/15 07:41:13;;;;;;;51.90;29.42;;;154.20;2252.80;;;;;;5033974;28;20456;-60
2021/03/15 07:43:39;;;;;;;45.35;27.65;;;154.30;2252.80;;;;;;5031244;28;20033;-64
2021/03/15 07:46:22;;;;;;;42.00;25.55;;;154.40;2252.80;;;;;;5046361;28;20025;-61
2021/03/15 07:48:49;;;;;;;39.35;24.02;;;154.40;2252.80;;;;;;5041386;28;20483;-62
2021/03/15 07:51:34;;;;;;;29.40;19.33;;;179.20;2252.80;;;;;;5042419;28;20391;-62
2021/03/15 07:54:04;;;;;;;31.55;20.90;;;179.40;2252.80;;;;;;5037412;28;20033;-63
2021/03/15 07:56:30;;;;;;;27.25;18.00;;;179.60;2252.80;;;;;;5040898;28;20540;-61
2021/03/15 07:58:56;;;;;;;26.15;16.60;;;179.50;2252.80;;;;;;5039069;28;20025;-62
2021/03/15 08:01:23;;;;;;;31.65;20.40;;;179.60;2252.80;;;;;;5035020;28;20127;-61
2021/03/15 08:03:50;;;;;;;39.03;23.35;;;179.60;2252.80;;;;;;5037182;28;20083;-62
2021/03/15 08:06:16;;;;;;;42.03;24.48;;;179.80;2252.80;;;;;;5035508;28;20047;-61
2021/03/15 08:08:42;;;;;;;34.25;20.17;;;179.90;2252.80;;;;;;5038736;28;20037;-61
2021/03/15 08:11:13;;;;;;;34.47;20.63;;;180.10;2252.80;;;;;;5036859;28;20430;-61
2021/03/15 08:13:43;;;;;;;38.45;23.77;;;205.00;2252.80;;;;;;5031890;28;20039;-62
2021/03/15 08:16:11;;;;;;;30.95;20.13;;;205.60;2252.80;;;;;;5021945;28;20103;-61
2021/03/15 08:18:40;;;;;;;22.90;15.10;;;230.60;2176.00;;;;;;5047078;28;20025;-61
2021/03/15 08:21:10;;;;;;;23.70;16.45;;;256.10;2048.00;;;;;;5048966;28;20029;-62
2021/03/15 08:23:44;;;;;;;19.40;13.85;;;256.40;1996.80;;;;;;5033989;28;20112;-69
2021/03/15 08:26:12;;;;;;;21.33;15.63;;;256.20;1996.80;;;;;;5042580;28;20079;-67
2021/03/15 08:28:40;;;;;;;18.10;13.18;;;231.20;2048.00;;;;;;5041494;28;20041;-68
2021/03/15 08:31:18;;;;;;;24.15;16.02;;;231.10;2099.20;;;;;;5046287;28;20017;-68
2021/03/15 08:33:45;;;;;;;19.65;13.57;;;230.90;2099.20;;;;;;5032487;28;20525;-63
2021/03/15 08:36:15;;;;;;;15.35;11.10;;;230.70;2073.60;;;;;;5037000;28;20079;-68
2021/03/15 08:38:40;;;;;;;17.48;12.13;;;230.50;2124.80;;;;;;5042887;28;20017;-65
2021/03/15 08:41:22;;;;;;;24.02;15.57;;;230.40;2150.40;;;;;;5040331;28;20356;-65
2021/03/15 08:43:50;;;;;;;19.30;13.00;;;205.70;2150.40;;;;;;5039487;28;20424;-66
2021/03/15 08:46:24;;;;;;;15.30;11.23;;;205.70;2150.40;;;;;;5041629;28;20029;-66
2021/03/15 08:48:51;;;;;;;20.55;13.43;;;205.70;2150.40;;;;;;5040108;28;20041;-67
2021/03/15 08:51:32;;;;;;;21.10;13.88;;;230.40;2150.40;;;;;;5041341;28;20032;-61
2021/03/15 08:53:58;;;;;;;18.85;13.93;;;230.50;2150.40;;;;;;5012813;28;20026;-61
2021/03/15 08:56:23;;;;;;;17.63;12.88;;;230.60;2150.40;;;;;;4999917;28;20036;-62
2021/03/15 08:58:51;;;;;;;21.63;15.75;;;230.50;2150.40;;;;;;5014339;28;20025;-61
2021/03/15 09:01:24;;;;;;;25.55;14.88;;;230.60;2150.40;;;;;;5032565;28;20533;-61
2021/03/15 09:03:55;;;;;;;43.25;23.85;;;230.50;2124.80;;;;;;5032619;28;20021;-61
2021/03/15 09:06:30;;;;;;;30.08;18.63;;;230.60;2099.20;;;;;;5031202;28;20378;-62
2021/03/15 09:09:24;;;;;;;17.58;11.68;;;230.70;2124.80;;;;;;5031703;28;20045;-68
2021/03/15 09:11:54;;;;;;;18.75;12.70;;;231.00;2073.60;;;;;;5037406;28;20029;-64
2021/03/15 09:14:20;;;;;;;22.10;13.95;;;231.10;2073.60;;;;;;5023466;28;20040;-61
2021/03/15 09:17:01;;;;;;;17.23;11.77;;;256.00;1996.80;;;;;;5038806;28;20021;-61
2021/03/15 09:19:39;;;;;;;17.08;11.05;;;256.20;1971.20;;;;;;5044759;28;20025;-60
2021/03/15 09:22:18;;;;;;;18.65;13.43;;;256.30;1945.60;;;;;;5052667;28;20599;-61
2021/03/15 09:24:48;;;;;;;22.45;15.05;;;256.40;1945.60;;;;;;5053063;28;20071;-60
2021/03/15 09:27:20;;;;;;;19.20;13.10;;;256.20;1945.60;;;;;;5052797;28;20021;-61
2021/03/15 09:29:56;;;;;;;17.60;12.02;;;256.20;1971.20;;;;;;5052644;28;20131;-61
2021/03/15 09:32:42;;;;;;;17.30;12.00;;;256.00;1945.60;;;;;;5028720;28;20022;-62
2021/03/15 09:35:14;;;;;;;18.65;12.02;;;256.00;1971.20;;;;;;5031987;28;20550;-62
2021/03/15 09:37:41;;;;;;;28.77;16.90;;;231.30;1945.60;;;;;;5032257;28;20471;-69
2021/03/15 09:40:11;;;;;;;19.90;13.45;;;256.10;1971.20;;;;;;5032343;28;20356;-63
2021/03/15 09:42:43;;;;;;;22.58;14.68;;;256.10;1920.00;;;;;;5031585;28;20049;-70
2021/03/15 09:45:13;;;;;;;40.60;22.00;;;231.30;1971.20;;;;;;5032342;28;20030;-68
2021/03/15 09:47:39;;;;;;;29.00;16.77;;;256.00;1945.60;;;;;;5030616;28;20124;-70
2021/03/15 09:50:23;;;;;;;23.40;13.32;;;256.00;1920.00;;;;;;5030482;28;20148;-67
2021/03/15 09:52:49;;;;;;;29.30;17.57;;;231.30;1920.00;;;;;;5032051;28;20021;-67
2021/03/15 09:55:15;;;;;;;23.30;13.23;;;256.10;1920.00;;;;;;5031742;28;20032;-61
2021/03/15 09:57:40;;;;;;;26.63;14.93;;;256.10;1868.80;;;;;;5032056;28;20037;-63
2021/03/15 10:00:14;;;;;;;23.15;13.48;;;256.00;1894.40;;;;;;5035758;28;20115;-66
2021/03/15 10:02:40;;;;;;;24.27;14.90;;;231.30;1920.00;;;;;;5052368;28;20036;-69
2021/03/15 10:05:07;;;;;;;19.67;14.02;;;231.20;1920.00;;;;;;5052004;28;20152;-62
2021/03/15 10:07:45;;;;;;;15.95;11.18;;;231.30;1971.20;;;;;;5052475;28;20029;-67
2021/03/15 10:10:20;;;;;;;20.25;12.38;;;256.00;1894.40;;;;;;5052163;28;20090;-61
2021/03/15 10:12:59;;;;;;;18.25;12.48;;;231.30;1945.60;;;;;;5052004;28;20021;-62
2021/03/15 10:15:24;;;;;;;19.50;11.95;;;231.20;1920.00;;;;;;5052246;28;20056;-61
2021/03/15 10:17:50;;;;;;;39.53;20.38;;;231.20;1894.40;;;;;;5053319;28;20475;-61
2021/03/15 10:20:28;;;;;;;42.03;22.02;;;231.10;1894.40;;;;;;5055698;28;20104;-63
2021/03/15 10:22:54;;;;;;;34.35;21.35;;;231.20;1868.80;;;;;;5055638;28;20482;-62
2021/03/15 10:25:20;;;;;;;22.60;14.82;;;231.30;1920.00;;;;;;5055453;28;20029;-61
2021/03/15 10:27:55;;;;;;;18.35;12.70;;;256.00;1843.20;;;;;;5055576;28;20025;-61
2021/03/15 10:30:25;;;;;;;15.98;10.98;;;256.00;1894.40;;;;;;5055592;28;20048;-61
2021/03/15 10:32:51;;;;;;;22.27;13.77;;;231.20;1868.80;;;;;;5055688;28;20490;-60
2021/03/15 10:35:19;;;;;;;18.33;10.25;;;256.20;1817.60;;;;;;5047822;28;20037;-63
2021/03/15 10:37:50;;;;;;;17.70;11.60;;;256.20;1766.40;;;;;;5054673;28;20021;-62
2021/03/15 10:40:19;;;;;;;19.45;13.50;;;256.20;1792.00;;;;;;5054654;28;20033;-65
2021/03/15 10:42:45;;;;;;;17.85;12.35;;;256.30;1817.60;;;;;;5054920;28;20033;-62
2021/03/15 10:45:13;;;;;;;16.85;11.05;;;256.40;1817.60;;;;;;5054973;28;20021;-62
2021/03/15 15:50:13;;;;;;;24.65;14.40;;;281.70;1356.80;;;;;;5289142;22;20059;-56
2021/03/15 15:52:39;;;;;;;19.88;11.27;;;282.10;1356.80;;;;;;5092154;28;20380;-56
2021/03/15 15:55:15;;;;;;;16.77;9.05;;;281.60;1356.80;;;;;;5093463;28;20464;-56
2021/03/15 15:57:41;;;;;;;55.10;25.90;;;256.30;1331.20;;;;;;5094031;28;20111;-56
2021/03/15 16:00:09;;;;;;;29.63;16.38;;;256.90;1356.80;;;;;;5094249;28;20111;-57
2021/03/15 16:02:35;;;;;;;23.15;13.45;;;256.90;1331.20;;;;;;5093071;28;20032;-56
2021/03/15 16:05:02;;;;;;;28.08;15.77;;;256.70;1356.80;;;;;;5093929;28;20020;-56
2021/03/15 16:07:27;;;;;;;42.75;21.70;;;256.80;1356.80;;;;;;5093375;28;20016;-56
2021/03/15 16:09:56;;;;;;;30.38;15.93;;;256.70;1382.40;;;;;;5075655;28;20370;-56
2021/03/15 16:12:22;;;;;;;35.15;18.35;;;256.70;1382.40;;;;;;5093684;28;20020;-56
2021/03/15 16:14:48;;;;;;;16.10;10.68;;;256.60;1382.40;;;;;;5093745;28;20035;-56
2021/03/15 16:17:18;;;;;;;19.10;11.70;;;256.50;1382.40;;;;;;5075472;28;20055;-56
2021/03/15 16:19:45;;;;;;;15.85;9.95;;;256.40;1382.40;;;;;;5093452;28;20035;-56
2021/03/15 16:22:11;;;;;;;19.90;13.52;;;256.40;1382.40;;;;;;5093811;28;20020;-57
2021/03/15 16:24:37;;;;;;;15.13;8.63;;;256.30;1356.80;;;;;;5075611;28;20027;-56
2021/03/15 16:27:04;;;;;;;19.15;9.85;;;256.20;1356.80;;;;;;5093724;28;20050;-56
2021/03/15 16:29:40;;;;;;;11.70;7.45;;;256.10;1382.40;;;;;;5086329;28;20051;-57
2021/03/15 16:32:08;;;;;;;17.40;11.00;;;256.00;1382.40;;;;;;5093179;28;20499;-57
2021/03/15 16:34:34;;;;;;;12.65;7.40;;;256.00;1382.40;;;;;;5093501;28;20020;-57
2021/03/15 16:37:00;;;;;;;8.48;4.95;;;256.00;1408.00;;;;;;5093714;28;20077;-56
2021/03/15 16:39:26;;;;;;;10.40;6.55;;;231.30;1356.80;;;;;;5093094;28;20023;-57
2021/03/15 16:41:52;;;;;;;8.93;5.28;;;231.30;1382.40;;;;;;5093484;28;20016;-57
2021/03/15 16:44:20;;;;;;;8.68;5.35;;;231.20;1382.40;;;;;;5092998;28;20028;-56
2021/03/15 16:46:45;;;;;;;9.68;6.45;;;231.20;1356.80;;;;;;5093383;28;20020;-56
2021/03/15 16:49:11;;;;;;;8.50;5.38;;;231.20;1382.40;;;;;;5092997;28;20502;-56
2021/03/15 16:51:37;;;;;;;7.03;4.55;;;231.10;1356.80;;;;;;5082523;28;20024;-56
2021/03/15 16:54:03;;;;;;;10.07;5.95;;;231.10;1356.80;;;;;;5090300;28;20039;-56
2021/03/15 16:56:29;;;;;;;10.23;6.43;;;231.00;1382.40;;;;;;5092046;28;20422;-56
2021/03/15 16:58:55;;;;;;;12.98;7.95;;;231.00;1382.40;;;;;;5093035;28;20537;-56
2021/03/15 17:01:21;;;;;;;12.40;7.80;;;230.90;1408.00;;;;;;5092717;28;20405;-56
2021/03/15 17:03:47;;;;;;;15.20;8.45;;;230.90;1382.40;;;;;;5093411;28;20039;-56
2021/03/15 17:06:13;;;;;;;14.18;9.02;;;230.90;1408.00;;;;;;5075092;28;20016;-56
2021/03/15 17:08:39;;;;;;;14.20;8.63;;;230.90;1382.40;;;;;;5092671;28;20085;-56
2021/03/15 17:11:18;;;;;;;14.93;9.18;;;230.90;1382.40;;;;;;5075307;28;20994;-56
2021/03/15 17:13:44;;;;;;;26.77;13.88;;;230.90;1408.00;;;;;;5054072;28;20035;-56
2021/03/15 17:16:11;;;;;;;31.48;16.15;;;230.90;1382.40;;;;;;5091037;28;20032;-56
2021/03/15 17:18:37;;;;;;;15.82;8.90;;;230.90;1382.40;;;;;;5092471;28;20028;-57
2021/03/15 17:21:06;;;;;;;15.18;8.30;;;230.80;1408.00;;;;;;5092717;28;20095;-56
2021/03/15 17:23:32;;;;;;;9.25;5.95;;;230.80;1408.00;;;;;;5074351;28;20020;-57